createdAt,value
2022-09-15T00:01:27.947Z,79.05
2022-09-15T00:03:56.000Z,78.97
2022-09-15T00:06:24.168Z,79.14
2022-09-15T00:08:52.135Z,79.14
2022-09-15T00:11:24.203Z,79.28
2022-09-15T00:13:53.598Z,79.21
2022-09-15T00:16:24.569Z,79.30
2022-09-15T00:18:53.063Z,79.01
2022-09-15T00:21:24.790Z,79.09
2022-09-15T00:23:52.912Z,78.89
2022-09-15T00:26:29.105Z,78.98
2022-09-15T00:28:58.713Z,78.91
2022-09-15T00:31:29.001Z,78.98
2022-09-15T00:33:58.846Z,78.80
2022-09-15T00:36:27.230Z,79.03
2022-09-15T00:38:55.570Z,78.96
2022-09-15T00:41:24.637Z,79.04
2022-09-15T00:43:55.743Z,79.12
2022-09-15T00:46:40.809Z,79.08
2022-09-15T00:49:20.758Z,78.97
2022-09-15T00:52:03.645Z,78.87
2022-09-15T00:54:37.786Z,78.49
2022-09-15T00:57:12.409Z,78.68
2022-09-15T00:59:43.086Z,78.60
2022-09-15T01:02:16.540Z,78.53
2022-09-15T01:04:44.846Z,78.42
2022-09-15T01:07:17.292Z,78.34
2022-09-15T01:09:56.231Z,78.42
2022-09-15T01:12:26.026Z,78.39
2022-09-15T01:14:54.097Z,78.46
2022-09-15T01:17:43.099Z,78.39
2022-09-15T01:20:26.277Z,78.59
2022-09-15T01:23:21.998Z,78.65
2022-09-15T01:26:28.895Z,78.68
2022-09-15T01:29:21.805Z,78.66
2022-09-15T01:32:22.057Z,78.44
2022-09-15T01:34:58.198Z,78.69
2022-09-15T01:37:32.839Z,78.94
2022-09-15T01:40:03.544Z,79.07
2022-09-15T01:42:33.669Z,79.10
2022-09-15T01:45:08.921Z,79.19
2022-09-15T01:47:37.669Z,79.45
2022-09-15T01:50:08.759Z,79.50
2022-09-15T01:52:41.265Z,79.63
2022-09-15T01:55:20.569Z,79.38
2022-09-15T01:57:49.326Z,79.10
2022-09-15T02:00:17.526Z,79.18
2022-09-15T02:02:59.935Z,79.18
2022-09-15T02:05:36.194Z,79.17
2022-09-15T02:08:16.114Z,79.31
2022-09-15T02:10:51.690Z,79.28
2022-09-15T02:13:28.160Z,79.30
2022-09-15T02:16:00.401Z,79.70
2022-09-15T02:18:45.467Z,79.64
2022-09-15T02:21:23.599Z,79.88
2022-09-15T02:23:57.522Z,80.10
2022-09-15T02:26:28.551Z,80.27
2022-09-15T02:29:00.520Z,80.21
2022-09-15T02:31:31.584Z,80.24
2022-09-15T02:34:06.995Z,80.16
2022-09-15T02:36:35.145Z,80.21
2022-09-15T02:39:09.423Z,80.08
2022-09-15T02:41:39.207Z,80.37
2022-09-15T02:44:09.205Z,80.32
2022-09-15T02:46:37.484Z,80.44
2022-09-15T02:49:05.863Z,80.25
2022-09-15T02:51:34.244Z,80.17
2022-09-15T02:54:02.723Z,80.22
2022-09-15T02:56:30.688Z,80.41
2022-09-15T02:58:58.759Z,80.28
2022-09-15T03:01:34.793Z,80.29
2022-09-15T03:04:04.346Z,80.27
2022-09-15T03:06:35.362Z,80.38
2022-09-15T03:09:08.144Z,80.44
2022-09-15T03:11:37.239Z,80.56
2022-09-15T03:14:06.910Z,80.69
2022-09-15T03:16:35.936Z,80.74
2022-09-15T03:19:04.944Z,80.79
2022-09-15T03:21:33.211Z,80.74
2022-09-15T03:24:01.285Z,80.92
2022-09-15T03:26:29.464Z,80.89
2022-09-15T03:28:57.523Z,81.06
2022-09-15T03:31:25.750Z,80.94
2022-09-15T03:33:56.202Z,81.13
2022-09-15T03:36:24.313Z,80.97
2022-09-15T03:38:53.017Z,81.10
2022-09-15T03:41:21.259Z,81.12
2022-09-15T03:43:49.529Z,81.32
2022-09-15T03:46:18.263Z,81.31
2022-09-15T03:48:47.693Z,81.16
2022-09-15T03:51:15.787Z,81.31
2022-09-15T03:53:43.960Z,81.57
2022-09-15T03:56:19.231Z,81.60
2022-09-15T03:58:47.240Z,81.54
2022-09-15T04:01:15.392Z,81.46
2022-09-15T04:03:47.583Z,81.53
2022-09-15T04:06:20.288Z,81.41
2022-09-15T04:08:49.902Z,81.38
2022-09-15T04:11:19.296Z,81.34
2022-09-15T04:13:48.391Z,81.41
2022-09-15T04:16:19.632Z,81.45
2022-09-15T04:18:47.705Z,81.33
2022-09-15T04:21:19.089Z,81.31
2022-09-15T04:23:47.749Z,81.46
2022-09-15T04:26:34.139Z,81.45
2022-09-15T04:29:04.952Z,81.46
2022-09-15T04:31:34.135Z,81.63
2022-09-15T04:34:02.452Z,81.79
2022-09-15T04:36:31.986Z,81.75
2022-09-15T04:39:00.374Z,81.66
2022-09-15T04:41:28.912Z,81.35
2022-09-15T04:43:57.171Z,81.21
2022-09-15T04:46:26.139Z,81.30
2022-09-15T04:48:54.556Z,81.28
2022-09-15T04:51:24.042Z,80.97
2022-09-15T04:53:52.295Z,81.09
2022-09-15T04:56:23.394Z,81.23
2022-09-15T04:59:02.413Z,80.41
2022-09-15T05:01:35.393Z,78.60
2022-09-15T05:04:04.307Z,76.41
2022-09-15T05:06:33.533Z,74.30
2022-09-15T05:09:09.061Z,72.31
2022-09-15T05:11:38.797Z,71.17
2022-09-15T05:14:07.212Z,70.00
2022-09-15T05:16:35.607Z,69.88
2022-09-15T05:19:04.825Z,69.51
2022-09-15T05:21:33.163Z,69.43
2022-09-15T05:24:01.518Z,69.61
2022-09-15T05:26:30.373Z,69.76
2022-09-15T05:28:58.399Z,69.67
2022-09-15T05:31:31.187Z,69.96
2022-09-15T05:34:04.834Z,70.13
2022-09-15T05:36:33.177Z,70.63
2022-09-15T05:39:02.019Z,71.00
2022-09-15T05:41:30.811Z,71.11
2022-09-15T05:43:59.359Z,71.44
2022-09-15T05:46:29.341Z,71.66
2022-09-15T05:48:58.841Z,71.92
2022-09-15T05:51:27.760Z,72.33
2022-09-15T05:53:56.105Z,72.34
2022-09-15T05:56:24.578Z,72.68
2022-09-15T05:58:52.689Z,72.98
2022-09-15T06:01:23.712Z,73.21
2022-09-15T06:03:53.027Z,73.41
2022-09-15T06:06:22.298Z,73.61
2022-09-15T06:08:58.137Z,73.81
2022-09-15T06:11:29.803Z,74.04
2022-09-15T06:14:03.362Z,73.96
2022-09-15T06:16:34.335Z,74.12
2022-09-15T06:19:03.495Z,74.30
2022-09-15T06:21:33.009Z,74.40
2022-09-15T06:24:07.434Z,74.27
2022-09-15T06:26:35.637Z,74.45
2022-09-15T06:29:05.353Z,74.67
2022-09-15T06:31:35.784Z,74.70
2022-09-15T06:36:50.849Z,74.96
2022-09-15T06:39:19.356Z,75.23
2022-09-15T06:42:01.836Z,75.38
2022-09-15T06:44:30.734Z,75.10
2022-09-15T06:46:58.902Z,74.99
2022-09-15T06:49:27.546Z,75.12
2022-09-15T06:51:56.544Z,75.32
2022-09-15T06:54:24.855Z,75.88
2022-09-15T06:56:53.163Z,75.77
2022-09-15T06:59:24.067Z,75.50
2022-09-15T07:02:02.638Z,75.35
2022-09-15T07:04:37.207Z,75.28
2022-09-15T07:07:05.384Z,75.26
2022-09-15T07:09:33.454Z,75.16
2022-09-15T07:12:01.740Z,75.25
2022-09-15T07:14:30.926Z,75.18
2022-09-15T07:16:58.997Z,74.56
2022-09-15T07:19:27.285Z,74.37
2022-09-15T07:21:55.338Z,74.14
2022-09-15T07:24:23.310Z,74.32
2022-09-15T07:26:52.295Z,74.18
2022-09-15T07:29:20.584Z,74.06
2022-09-15T07:31:49.008Z,74.24
2022-09-15T07:34:17.759Z,73.62
2022-09-15T07:36:45.814Z,73.67
2022-09-15T07:39:14.186Z,73.63
2022-09-15T07:41:42.259Z,73.43
2022-09-15T07:44:13.246Z,73.09
2022-09-15T07:46:41.267Z,73.14
2022-09-15T07:49:10.871Z,73.64
2022-09-15T07:51:38.941Z,73.18
2022-09-15T07:54:07.523Z,73.16
2022-09-15T07:56:35.696Z,72.77
2022-09-15T07:59:03.876Z,72.99
2022-09-15T08:01:31.831Z,72.97
2022-09-15T08:03:59.909Z,72.87
2022-09-15T08:06:28.389Z,72.52
2022-09-15T08:09:00.468Z,72.44
2022-09-15T08:11:30.094Z,72.46
2022-09-15T08:14:01.477Z,72.25
2022-09-15T08:16:29.973Z,71.53
2022-09-15T08:18:58.913Z,70.98
2022-09-15T08:21:28.077Z,70.66
2022-09-15T08:23:58.807Z,70.68
2022-09-15T08:26:28.943Z,70.02
2022-09-15T08:28:58.193Z,69.87
2022-09-15T08:31:26.611Z,69.43
2022-09-15T08:33:56.128Z,69.36
2022-09-15T08:36:28.153Z,69.25
2022-09-15T08:38:56.994Z,68.78
2022-09-15T08:41:33.980Z,68.27
2022-09-15T08:44:34.166Z,67.68
2022-09-15T08:47:05.665Z,67.37
2022-09-15T08:49:51.669Z,67.11
2022-09-15T08:52:27.131Z,66.70
2022-09-15T08:54:59.009Z,66.63
2022-09-15T08:57:27.598Z,66.61
2022-09-15T08:59:56.283Z,66.62
2022-09-15T09:02:50.738Z,66.88
2022-09-15T09:05:37.474Z,66.14
2022-09-15T09:08:26.449Z,66.00
2022-09-15T09:11:03.413Z,66.37
2022-09-15T09:13:53.178Z,66.46
2022-09-15T09:17:00.480Z,65.97
2022-09-15T09:19:40.025Z,65.49
2022-09-15T09:22:23.264Z,65.42
2022-09-15T09:24:55.725Z,65.43
2022-09-15T09:27:28.992Z,65.58
2022-09-15T09:30:23.317Z,64.19
2022-09-15T09:33:05.318Z,63.41
2022-09-15T09:35:49.854Z,63.16
2022-09-15T09:38:32.776Z,63.37
2022-09-15T09:41:02.670Z,63.26
2022-09-15T09:43:32.503Z,63.46
2022-09-15T09:46:01.013Z,63.80
2022-09-15T09:48:30.516Z,63.66
2022-09-15T09:50:58.658Z,63.02
2022-09-15T09:53:32.324Z,63.14
2022-09-15T09:56:24.768Z,63.32
2022-09-15T09:58:54.856Z,62.84
2022-09-15T10:01:26.336Z,62.37
2022-09-15T10:04:21.433Z,62.56
2022-09-15T10:06:50.157Z,62.30
2022-09-15T10:09:19.602Z,61.71
2022-09-15T10:11:55.009Z,61.18
2022-09-15T10:14:30.962Z,61.14
2022-09-15T10:17:13.987Z,60.65
2022-09-15T10:19:47.165Z,60.27
2022-09-15T10:22:27.627Z,60.13
2022-09-15T10:24:55.903Z,59.83
2022-09-15T10:27:28.994Z,60.07
2022-09-15T10:30:16.009Z,59.91
2022-09-15T10:32:44.895Z,59.65
2022-09-15T10:35:20.860Z,59.58
2022-09-15T10:38:03.839Z,59.86
2022-09-15T10:40:37.557Z,59.60
2022-09-15T10:43:24.505Z,58.97
2022-09-15T10:46:04.407Z,58.89
2022-09-15T10:49:03.532Z,58.87
2022-09-15T10:51:31.424Z,58.96
2022-09-15T10:54:16.984Z,59.10
2022-09-15T10:56:50.065Z,59.37
2022-09-15T10:59:25.156Z,59.47
2022-09-15T11:02:10.976Z,59.43
2022-09-15T11:05:11.824Z,58.56
2022-09-15T11:07:54.371Z,57.99
2022-09-15T11:10:28.645Z,58.00
2022-09-15T11:12:57.176Z,58.14
2022-09-15T11:15:37.500Z,57.84
2022-09-15T11:18:26.956Z,57.98
2022-09-15T11:21:27.293Z,58.20
2022-09-15T11:24:13.486Z,57.73
2022-09-15T11:26:45.770Z,57.73
2022-09-15T11:29:26.342Z,57.97
2022-09-15T11:32:26.136Z,58.10
2022-09-15T11:35:00.882Z,58.17
2022-09-15T11:37:45.513Z,58.17
2022-09-15T11:40:20.242Z,58.11
2022-09-15T11:43:03.168Z,57.63
2022-09-15T11:45:38.607Z,57.66
2022-09-15T11:48:28.687Z,57.47
2022-09-15T11:51:00.221Z,57.26
2022-09-15T11:53:35.647Z,57.39
2022-09-15T11:56:28.949Z,57.21
2022-09-15T11:59:27.738Z,57.10
2022-09-15T12:02:23.657Z,57.90
2022-09-15T12:05:09.780Z,57.02
2022-09-15T12:07:51.444Z,56.47
2022-09-15T12:10:25.966Z,57.30
2022-09-15T12:12:54.612Z,57.85
2022-09-15T12:15:27.504Z,57.32
2022-09-15T12:18:21.358Z,57.07
2022-09-15T12:21:11.613Z,56.86
2022-09-15T12:23:51.273Z,56.16
2022-09-15T12:26:21.989Z,55.90
2022-09-15T12:28:59.262Z,55.91
2022-09-15T12:31:30.042Z,56.44
2022-09-15T12:33:59.679Z,56.52
2022-09-15T12:36:44.772Z,56.41
2022-09-15T12:39:23.360Z,56.12
2022-09-15T12:42:00.452Z,56.22
2022-09-15T12:44:36.380Z,55.98
2022-09-15T12:47:08.110Z,55.85
2022-09-15T12:49:43.732Z,55.27
2022-09-15T12:52:12.828Z,54.37
2022-09-15T12:54:45.422Z,54.88
2022-09-15T12:57:36.714Z,55.99
2022-09-15T13:00:31.251Z,57.43
2022-09-15T13:03:00.584Z,57.54
2022-09-15T13:05:53.123Z,57.31
2022-09-15T13:08:24.912Z,57.20
2022-09-15T13:11:11.601Z,56.65
2022-09-15T13:14:10.748Z,56.54
2022-09-15T13:16:41.655Z,55.17
2022-09-15T13:19:30.537Z,54.90
2022-09-15T13:22:01.810Z,55.27
2022-09-15T13:24:32.649Z,55.92
2022-09-15T13:27:02.704Z,55.98
2022-09-15T13:29:33.105Z,56.58
2022-09-15T13:32:23.735Z,56.99
2022-09-15T13:35:18.126Z,57.72
2022-09-15T13:38:22.998Z,57.98
2022-09-15T13:41:03.478Z,58.50
2022-09-15T13:43:58.995Z,58.49
2022-09-15T13:46:45.178Z,58.66
2022-09-15T13:49:42.336Z,58.57
2022-09-15T13:52:22.548Z,58.74
2022-09-15T13:55:35.449Z,58.47
2022-09-15T14:01:06.799Z,57.73
2022-09-15T14:04:09.124Z,56.70
2022-09-15T14:06:40.629Z,56.40
2022-09-15T14:09:28.402Z,56.00
2022-09-15T14:12:02.260Z,56.07
2022-09-15T14:14:41.204Z,56.54
2022-09-15T14:17:27.382Z,56.50
2022-09-15T14:19:58.434Z,56.43
2022-09-15T14:22:31.748Z,56.45
2022-09-15T14:25:05.355Z,56.85
2022-09-15T14:27:35.658Z,57.03
2022-09-15T14:30:07.748Z,57.22
2022-09-15T14:32:40.009Z,57.40
2022-09-15T14:35:16.014Z,57.38
2022-09-15T14:37:55.443Z,57.55
2022-09-15T14:40:29.389Z,57.54
2022-09-15T14:42:58.480Z,57.72
2022-09-15T14:48:30.810Z,57.60
2022-09-15T14:51:05.103Z,58.00
2022-09-15T14:53:37.789Z,58.21
2022-09-15T14:56:12.334Z,58.19
2022-09-15T14:59:05.054Z,57.99
2022-09-15T15:01:40.218Z,58.22
2022-09-15T15:04:17.366Z,58.40
2022-09-15T15:07:09.646Z,58.86
2022-09-15T15:09:47.028Z,59.51
2022-09-15T15:12:23.818Z,59.72
2022-09-15T15:14:56.372Z,60.08
2022-09-15T15:17:25.143Z,60.25
2022-09-15T15:20:16.181Z,60.38
2022-09-15T15:22:45.817Z,60.51
2022-09-15T15:25:22.331Z,60.59
2022-09-15T15:27:56.049Z,60.69
2022-09-15T15:30:30.704Z,61.01
2022-09-15T15:33:05.128Z,60.92
2022-09-15T15:35:35.869Z,60.83
2022-09-15T15:38:09.921Z,60.66
2022-09-15T15:40:40.831Z,60.22
2022-09-15T15:43:26.539Z,59.83
2022-09-15T15:46:01.411Z,59.78
2022-09-15T15:48:38.239Z,59.94
2022-09-15T15:51:07.779Z,59.79
2022-09-15T15:53:35.910Z,59.89
2022-09-15T15:56:03.953Z,59.98
2022-09-15T15:58:31.918Z,60.11
2022-09-15T16:01:00.577Z,60.34
2022-09-15T16:03:28.803Z,60.40
2022-09-15T16:06:00.457Z,60.87
2022-09-15T16:08:32.120Z,61.20
2022-09-15T16:11:02.554Z,61.07
2022-09-15T16:13:31.429Z,61.16
2022-09-15T16:16:01.352Z,61.15
2022-09-15T16:18:29.784Z,61.11
2022-09-15T16:20:57.992Z,61.19
2022-09-15T16:23:26.030Z,61.41
2022-09-15T16:26:04.521Z,61.63
2022-09-15T16:28:32.650Z,61.44
2022-09-15T16:31:00.664Z,61.50
2022-09-15T16:33:28.735Z,61.15
2022-09-15T16:36:06.607Z,61.00
2022-09-15T16:38:36.277Z,60.78
2022-09-15T16:41:11.023Z,60.90
2022-09-15T16:43:39.007Z,60.95
2022-09-15T16:46:11.536Z,60.98
2022-09-15T16:48:41.482Z,61.21
2022-09-15T16:51:31.630Z,61.25
2022-09-15T16:54:00.253Z,61.38
2022-09-15T16:56:28.636Z,61.61
2022-09-15T16:59:00.102Z,61.78
2022-09-15T17:01:29.078Z,61.96
2022-09-15T17:03:57.759Z,62.35
2022-09-15T17:06:25.802Z,62.38
2022-09-15T17:08:54.432Z,62.66
2022-09-15T17:11:25.352Z,62.97
2022-09-15T17:13:53.711Z,63.18
2022-09-15T17:16:22.175Z,63.23
2022-09-15T17:18:50.381Z,63.51
2022-09-15T17:21:20.109Z,63.54
2022-09-15T17:23:49.887Z,63.87
2022-09-15T17:26:21.463Z,64.01
2022-09-15T17:28:51.167Z,63.98
2022-09-15T17:31:22.157Z,64.21
2022-09-15T17:33:51.010Z,64.27
2022-09-15T17:36:19.164Z,64.50
2022-09-15T17:38:49.118Z,64.52
2022-09-15T17:41:20.019Z,64.71
2022-09-15T17:43:49.508Z,64.77
2022-09-15T17:46:17.509Z,64.91
2022-09-15T17:48:45.662Z,65.11
2022-09-15T17:51:19.820Z,65.38
2022-09-15T17:53:48.031Z,65.54
2022-09-15T17:56:16.425Z,65.61
2022-09-15T17:58:45.496Z,65.93
2022-09-15T18:01:14.916Z,66.04
2022-09-15T18:03:45.216Z,66.29
2022-09-15T18:06:14.138Z,66.52
2022-09-15T18:08:42.204Z,66.21
2022-09-15T18:11:13.350Z,66.16
2022-09-15T18:13:41.993Z,65.97
2022-09-15T18:16:14.606Z,66.13
2022-09-15T18:18:43.200Z,66.23
2022-09-15T18:21:29.385Z,66.18
2022-09-15T18:23:57.459Z,66.40
2022-09-15T18:26:26.798Z,66.43
2022-09-15T18:28:56.331Z,66.73
2022-09-15T18:31:24.992Z,66.79
2022-09-15T18:33:53.444Z,66.75
2022-09-15T18:36:21.827Z,66.77
2022-09-15T18:38:53.290Z,66.90
2022-09-15T18:41:21.529Z,67.38
2022-09-15T18:43:49.824Z,67.18
2022-09-15T18:46:18.633Z,67.41
2022-09-15T18:48:47.073Z,67.71
2022-09-15T18:51:23.871Z,68.27
2022-09-15T18:53:57.677Z,68.47
2022-09-15T18:56:25.731Z,68.68
2022-09-15T18:58:55.124Z,69.00
2022-09-15T19:01:24.400Z,69.35
2022-09-15T19:03:52.389Z,69.46
2022-09-15T19:06:20.667Z,69.82
2022-09-15T19:08:49.066Z,70.16
2022-09-15T19:11:17.878Z,70.55
2022-09-15T19:13:46.420Z,70.98
2022-09-15T19:16:14.516Z,71.08
2022-09-15T19:18:45.128Z,71.43
2022-09-15T19:21:13.290Z,71.57
2022-09-15T19:23:41.259Z,71.82
2022-09-15T19:26:14.039Z,72.05
2022-09-15T19:28:44.520Z,72.29
2022-09-15T19:31:13.872Z,72.49
2022-09-15T19:33:42.755Z,72.82
2022-09-15T19:36:27.540Z,72.92
2022-09-15T19:39:00.328Z,73.18
2022-09-15T19:41:28.945Z,73.37
2022-09-15T19:43:57.773Z,73.59
2022-09-15T19:46:26.082Z,73.66
2022-09-15T19:48:55.575Z,73.97
2022-09-15T19:51:24.237Z,74.11
2022-09-15T19:53:56.520Z,74.19
2022-09-15T19:56:26.459Z,74.27
2022-09-15T19:58:56.585Z,74.37
2022-09-15T20:01:28.013Z,74.55
2022-09-15T20:06:42.356Z,74.94
2022-09-15T20:09:10.692Z,75.02
2022-09-15T20:11:38.684Z,75.01
2022-09-15T20:14:07.902Z,75.03
2022-09-15T20:16:35.889Z,75.29
2022-09-15T20:19:05.025Z,75.19
2022-09-15T20:21:49.665Z,75.45
2022-09-15T20:24:20.587Z,75.56
2022-09-15T20:26:48.742Z,75.71
2022-09-15T20:29:17.566Z,75.57
2022-09-15T20:31:47.022Z,75.50
2022-09-15T20:34:15.472Z,75.58
2022-09-15T20:36:44.721Z,75.76
2022-09-15T20:39:15.535Z,75.90
2022-09-15T20:41:46.985Z,75.94
2022-09-15T20:44:15.866Z,75.97
2022-09-15T20:46:44.456Z,75.88
2022-09-15T20:49:12.768Z,76.04
2022-09-15T20:51:40.903Z,76.25
2022-09-15T20:54:11.041Z,76.23
2022-09-15T20:56:39.197Z,76.41
2022-09-15T20:59:10.622Z,76.53
2022-09-15T21:01:40.120Z,76.65
2022-09-15T21:04:10.163Z,76.68
2022-09-15T21:06:39.291Z,76.87
2022-09-15T21:09:07.555Z,76.87
2022-09-15T21:11:36.059Z,76.85
2022-09-15T21:14:04.478Z,76.91
2022-09-15T21:16:35.176Z,77.06
2022-09-15T21:19:03.709Z,77.09
2022-09-15T21:21:33.735Z,77.14
2022-09-15T21:24:07.645Z,77.14
2022-09-15T21:27:01.101Z,77.39
2022-09-15T21:29:30.166Z,77.59
2022-09-15T21:31:58.309Z,77.67
2022-09-15T21:34:26.582Z,78.00
2022-09-15T21:36:54.924Z,77.88
2022-09-15T21:39:23.401Z,78.10
2022-09-15T21:41:51.472Z,78.09
2022-09-15T21:44:19.743Z,78.27
2022-09-15T21:46:48.432Z,78.11
2022-09-15T21:49:18.249Z,78.34
2022-09-15T21:51:46.622Z,78.35
2022-09-15T21:54:15.311Z,78.24
2022-09-15T21:56:43.580Z,78.21
2022-09-15T21:59:11.871Z,78.39
2022-09-15T22:01:40.738Z,78.24
2022-09-15T22:04:10.631Z,78.26
2022-09-15T22:06:40.791Z,78.12
2022-09-15T22:09:13.358Z,78.15
2022-09-15T22:11:42.040Z,78.13
2022-09-15T22:14:10.730Z,78.02
2022-09-15T22:16:40.222Z,78.12
2022-09-15T22:19:11.271Z,78.10
2022-09-15T22:21:42.033Z,78.02
2022-09-15T22:24:13.569Z,78.06
2022-09-15T22:26:43.015Z,77.86
2022-09-15T22:29:11.647Z,77.96
2022-09-15T22:31:40.976Z,77.97
2022-09-15T22:34:09.120Z,78.02
2022-09-15T22:36:37.182Z,78.16
2022-09-15T22:39:06.897Z,78.03
2022-09-15T22:41:38.804Z,77.84
2022-09-15T22:44:13.778Z,77.85
2022-09-15T22:46:42.061Z,77.94
2022-09-15T22:49:10.139Z,78.17
2022-09-15T22:51:38.200Z,78.13
2022-09-15T22:54:06.474Z,78.25
2022-09-15T22:56:34.657Z,78.23
2022-09-15T22:59:03.126Z,78.38
2022-09-15T23:01:31.226Z,78.58
2022-09-15T23:04:02.038Z,78.47
2022-09-15T23:06:33.077Z,78.72
2022-09-15T23:09:04.983Z,78.77
2022-09-15T23:11:33.885Z,78.78
2022-09-15T23:14:02.411Z,78.64
2022-09-15T23:16:31.064Z,78.78
2022-09-15T23:19:00.005Z,78.82
2022-09-15T23:21:28.562Z,78.69
2022-09-15T23:23:56.840Z,78.80
2022-09-15T23:26:26.169Z,78.69
2022-09-15T23:28:54.772Z,78.46
2022-09-15T23:31:22.929Z,78.48
2022-09-15T23:33:51.071Z,78.51
2022-09-15T23:36:19.962Z,78.49
2022-09-15T23:38:49.581Z,78.32
2022-09-15T23:41:18.806Z,78.23
2022-09-15T23:43:47.550Z,78.22
2022-09-15T23:46:17.681Z,78.30
2022-09-15T23:48:45.945Z,78.21
2022-09-15T23:51:14.221Z,78.06
2022-09-15T23:53:42.526Z,77.94
2022-09-15T23:56:10.567Z,78.05
2022-09-15T23:58:39.047Z,78.11
